Terminal Aerodrome Forecast
Issued by NWS

Home | Current Version | Previous Version | Text Only | Print | Product List | Glossary Off
Versions: 1 2 3 4 5 6 7 8 9 10 11 12 13

000
FTUS43 KICT 161700
TAFRSL
TAF
KRSL 161737Z 1618/1718 33014G20KT P6SM BKN200
     FM170300 02013KT P6SM OVC120=

USA.gov is the U.S. government's official web portal to all federal, state and local government web resources and services.